Time;durP1;ratioP1;P1;durP2;ratioP2;P2;SDS_P1;SDS_P2;PMS_P1;PMS_P2;Temp;Humidity;BMP_temperature;BMP_pressure;BME280_temperature;BME280_humidity;BME280_pressure;Samples;Min_cycle;Max_cycle;Signal;HPM_P1;HPM_P2
2023/01/19 00:01:54;;;;;;;6.00;5.33;;;;;;;;;;5013522;28;20437;-84
2023/01/19 00:04:20;;;;;;;7.37;5.87;;;;;;;;;;5010544;28;20957;-83
2023/01/19 00:06:46;;;;;;;6.93;5.67;;;;;;;;;;5014850;28;20871;-84
2023/01/19 00:09:12;;;;;;;6.23;5.60;;;;;;;;;;5009242;28;20442;-83
2023/01/19 00:11:38;;;;;;;6.57;5.97;;;;;;;;;;5014722;28;20220;-84
2023/01/19 00:14:04;;;;;;;9.93;5.53;;;;;;;;;;5031525;28;20447;-84
2023/01/19 00:16:30;;;;;;;7.07;5.70;;;;;;;;;;5014947;28;20822;-84
2023/01/19 00:18:57;;;;;;;6.50;5.53;;;;;;;;;;5007228;28;20922;-84
2023/01/19 00:21:23;;;;;;;8.57;5.90;;;;;;;;;;5048726;28;20428;-84
2023/01/19 00:23:51;;;;;;;5.73;5.20;;;;;;;;;;5010819;28;20231;-84
2023/01/19 00:26:17;;;;;;;7.70;5.90;;;;;;;;;;5048058;28;20888;-84
2023/01/19 00:28:44;;;;;;;5.80;5.30;;;;;;;;;;5016084;28;20451;-85
2023/01/19 00:31:10;;;;;;;6.47;5.77;;;;;;;;;;5015922;28;20512;-84
2023/01/19 00:33:37;;;;;;;6.53;5.53;;;;;;;;;;5012840;28;20577;-83
2023/01/19 00:36:03;;;;;;;7.20;5.77;;;;;;;;;;5044917;28;20464;-83
2023/01/19 00:38:30;;;;;;;6.50;5.90;;;;;;;;;;5012351;28;20447;-85
2023/01/19 00:40:56;;;;;;;7.30;6.17;;;;;;;;;;5047231;28;20437;-84
2023/01/19 00:43:22;;;;;;;6.40;5.30;;;;;;;;;;5012279;28;20433;-84
2023/01/19 00:45:48;;;;;;;6.07;5.10;;;;;;;;;;5046664;28;20193;-83
2023/01/19 00:48:14;;;;;;;6.10;5.50;;;;;;;;;;5005315;28;20193;-84
2023/01/19 00:50:40;;;;;;;6.17;5.57;;;;;;;;;;5031159;28;20440;-83
2023/01/19 00:53:06;;;;;;;7.37;5.70;;;;;;;;;;5015664;28;20456;-84
2023/01/19 00:55:32;;;;;;;6.23;5.47;;;;;;;;;;5014326;28;20469;-84
2023/01/19 00:57:58;;;;;;;6.50;5.47;;;;;;;;;;5016167;28;20436;-84
2023/01/19 01:00:25;;;;;;;9.00;5.83;;;;;;;;;;5013264;28;20432;-85
2023/01/19 01:02:52;;;;;;;6.03;5.40;;;;;;;;;;5013876;28;20511;-85
2023/01/19 01:05:18;;;;;;;6.87;6.07;;;;;;;;;;5016677;28;20281;-84
2023/01/19 01:07:45;;;;;;;6.93;6.13;;;;;;;;;;5015404;28;20567;-83
2023/01/19 01:10:13;;;;;;;6.90;5.53;;;;;;;;;;5014515;28;20428;-84
2023/01/19 01:12:40;;;;;;;7.73;6.07;;;;;;;;;;5014945;28;20432;-83
2023/01/19 01:15:07;;;;;;;6.17;5.27;;;;;;;;;;5013478;28;20507;-86
2023/01/19 01:17:33;;;;;;;5.57;5.07;;;;;;;;;;5031969;28;20429;-83
2023/01/19 01:19:59;;;;;;;6.50;5.07;;;;;;;;;;5014868;28;20436;-84
2023/01/19 01:22:25;;;;;;;6.80;5.70;;;;;;;;;;5015845;28;20927;-84
2023/01/19 01:24:51;;;;;;;5.83;5.07;;;;;;;;;;5014487;28;20990;-83
2023/01/19 01:27:17;;;;;;;5.73;5.13;;;;;;;;;;5014405;28;20491;-83
2023/01/19 01:29:46;;;;;;;6.73;6.13;;;;;;;;;;5015541;28;20523;-83
2023/01/19 01:32:15;;;;;;;6.77;5.77;;;;;;;;;;5012558;28;20463;-83
2023/01/19 01:34:41;;;;;;;5.97;5.37;;;;;;;;;;5014757;28;20464;-85
2023/01/19 01:37:07;;;;;;;5.97;5.33;;;;;;;;;;5012715;28;20821;-84
2023/01/19 01:39:37;;;;;;;5.20;4.70;;;;;;;;;;5012688;28;20539;-85
2023/01/19 01:42:03;;;;;;;6.93;6.10;;;;;;;;;;5013822;28;20943;-84
2023/01/19 01:44:48;;;;;;;6.97;5.93;;;;;;;;;;5015727;28;20475;-83
2023/01/19 01:47:20;;;;;;;6.40;5.40;;;;;;;;;;5014042;28;20507;-85
2023/01/19 01:49:47;;;;;;;8.47;5.20;;;;;;;;;;5016465;28;20178;-84
2023/01/19 01:52:13;;;;;;;5.63;5.07;;;;;;;;;;5031478;28;20190;-84
2023/01/19 01:54:40;;;;;;;5.90;5.23;;;;;;;;;;5014890;28;20229;-85
2023/01/19 01:57:11;;;;;;;7.80;5.90;;;;;;;;;;5032038;28;20567;-84
2023/01/19 01:59:39;;;;;;;7.13;5.97;;;;;;;;;;5031509;28;20440;-83
2023/01/19 02:04:53;;;;;;;6.60;5.70;;;;;;;;;;5032679;28;20435;-84
2023/01/19 02:15:38;;;;;;;6.40;5.57;;;;;;;;;;5030503;28;20616;-83
2023/01/19 02:18:05;;;;;;;6.80;6.10;;;;;;;;;;5031454;28;20512;-83
2023/01/19 02:20:31;;;;;;;6.27;5.33;;;;;;;;;;5009793;28;20530;-85
2023/01/19 02:23:00;;;;;;;6.90;6.07;;;;;;;;;;5013306;28;20280;-84
2023/01/19 02:25:26;;;;;;;6.63;5.73;;;;;;;;;;5013248;28;20436;-85
2023/01/19 02:27:52;;;;;;;8.40;5.60;;;;;;;;;;5013184;28;20438;-84
2023/01/19 02:30:19;;;;;;;6.93;5.77;;;;;;;;;;5013147;28;20432;-84
2023/01/19 02:32:45;;;;;;;6.63;6.03;;;;;;;;;;5013729;28;20186;-84
2023/01/19 02:35:12;;;;;;;6.93;6.10;;;;;;;;;;5031639;28;20197;-84
2023/01/19 02:37:39;;;;;;;7.90;6.77;;;;;;;;;;5028570;28;20437;-83
2023/01/19 02:40:07;;;;;;;7.20;5.47;;;;;;;;;;5011942;28;20426;-83
2023/01/19 02:42:36;;;;;;;7.23;6.20;;;;;;;;;;5014032;28;20428;-84
2023/01/19 02:45:07;;;;;;;7.57;6.13;;;;;;;;;;5014637;28;20419;-82
2023/01/19 02:47:38;;;;;;;7.37;5.63;;;;;;;;;;5003759;28;20436;-84
2023/01/19 02:50:04;;;;;;;6.97;5.97;;;;;;;;;;5029328;28;20444;-84
2023/01/19 02:52:30;;;;;;;7.93;5.80;;;;;;;;;;5014992;28;20432;-84
2023/01/19 02:55:05;;;;;;;7.93;5.80;;;;;;;;;;5022599;28;20546;-84
2023/01/19 02:57:38;;;;;;;6.27;5.50;;;;;;;;;;5031098;28;20518;-84
2023/01/19 03:00:17;;;;;;;6.70;6.00;;;;;;;;;;5001085;28;20409;-83
2023/01/19 03:03:01;;;;;;;7.63;6.00;;;;;;;;;;5012114;28;20421;-84
2023/01/19 03:05:34;;;;;;;6.60;5.77;;;;;;;;;;5014941;28;20859;-84
2023/01/19 03:08:03;;;;;;;7.33;5.60;;;;;;;;;;5013104;28;21795;-84
2023/01/19 03:10:52;;;;;;;6.20;5.50;;;;;;;;;;5013535;28;20440;-84
2023/01/19 03:13:24;;;;;;;6.50;5.73;;;;;;;;;;5023951;28;20416;-83
2023/01/19 03:15:54;;;;;;;6.17;5.57;;;;;;;;;;5048532;28;20467;-84
2023/01/19 03:18:22;;;;;;;8.23;5.57;;;;;;;;;;5017577;28;20490;-84
2023/01/19 03:20:49;;;;;;;7.30;6.60;;;;;;;;;;5017735;28;20296;-85
2023/01/19 03:23:15;;;;;;;6.33;5.73;;;;;;;;;;5035241;28;20915;-85
2023/01/19 03:25:43;;;;;;;7.30;6.40;;;;;;;;;;5016565;28;20436;-84
2023/01/19 03:28:09;;;;;;;8.20;5.53;;;;;;;;;;5015669;28;20506;-84
2023/01/19 03:30:39;;;;;;;5.87;5.23;;;;;;;;;;5016213;28;20640;-84
2023/01/19 03:33:08;;;;;;;7.77;5.90;;;;;;;;;;5036101;28;20220;-85
2023/01/19 03:35:36;;;;;;;8.30;6.50;;;;;;;;;;4999435;28;20465;-84
2023/01/19 03:38:05;;;;;;;6.80;5.80;;;;;;;;;;5030515;28;20858;-85
2023/01/19 03:40:32;;;;;;;8.40;5.60;;;;;;;;;;5015981;28;20486;-84
2023/01/19 03:42:59;;;;;;;5.93;5.17;;;;;;;;;;5032845;28;20213;-83
2023/01/19 03:45:25;;;;;;;7.07;5.73;;;;;;;;;;5015873;28;20739;-83
2023/01/19 03:47:51;;;;;;;7.67;5.93;;;;;;;;;;5016855;28;20463;-83
2023/01/19 03:50:22;;;;;;;6.13;5.37;;;;;;;;;;5034414;28;20760;-84
2023/01/19 03:52:59;;;;;;;6.50;5.50;;;;;;;;;;5016888;28;20237;-84
2023/01/19 03:55:25;;;;;;;7.37;5.50;;;;;;;;;;5032138;28;20224;-84
2023/01/19 03:57:51;;;;;;;7.03;5.30;;;;;;;;;;5016670;28;20704;-83
2023/01/19 04:00:17;;;;;;;5.97;5.37;;;;;;;;;;5032687;28;20194;-85
2023/01/19 04:02:43;;;;;;;8.67;5.33;;;;;;;;;;5015009;28;20528;-84
2023/01/19 04:05:09;;;;;;;6.50;5.03;;;;;;;;;;5006979;28;20440;-83
2023/01/19 04:07:35;;;;;;;7.50;5.43;;;;;;;;;;5015881;28;20503;-83
2023/01/19 04:10:01;;;;;;;6.30;5.70;;;;;;;;;;5015881;28;20473;-85
2023/01/19 04:12:27;;;;;;;6.53;5.23;;;;;;;;;;5027197;28;20432;-84
2023/01/19 04:14:53;;;;;;;6.40;5.23;;;;;;;;;;5007242;28;20468;-84
2023/01/19 04:17:20;;;;;;;7.53;6.20;;;;;;;;;;5014911;28;20503;-84
2023/01/19 04:19:46;;;;;;;7.87;5.57;;;;;;;;;;5017234;28;20628;-84
2023/01/19 04:22:12;;;;;;;10.00;5.50;;;;;;;;;;5016526;28;20528;-84
2023/01/19 04:24:38;;;;;;;7.47;5.57;;;;;;;;;;5016137;28;20233;-85
2023/01/19 04:27:04;;;;;;;6.80;5.23;;;;;;;;;;5015782;28;20656;-83
2023/01/19 04:29:30;;;;;;;6.40;5.70;;;;;;;;;;5016924;28;20993;-83
2023/01/19 04:31:56;;;;;;;7.40;5.33;;;;;;;;;;5030975;28;20432;-83
2023/01/19 04:34:22;;;;;;;8.20;5.73;;;;;;;;;;5015078;28;20182;-84
2023/01/19 04:36:50;;;;;;;7.03;5.10;;;;;;;;;;5015497;28;20432;-85
2023/01/19 04:39:16;;;;;;;7.13;5.53;;;;;;;;;;5034329;28;20170;-83
2023/01/19 04:41:42;;;;;;;7.67;5.20;;;;;;;;;;5016347;28;20437;-82
2023/01/19 04:44:09;;;;;;;6.80;5.67;;;;;;;;;;5015861;28;20424;-83
2023/01/19 04:46:35;;;;;;;8.17;5.60;;;;;;;;;;5013778;28;20524;-82
2023/01/19 04:49:01;;;;;;;5.70;5.10;;;;;;;;;;5034858;28;20533;-82
2023/01/19 04:51:27;;;;;;;8.03;5.90;;;;;;;;;;5017974;28;20178;-83
2023/01/19 04:53:54;;;;;;;6.07;5.00;;;;;;;;;;5015434;28;20202;-83
2023/01/19 04:56:20;;;;;;;7.13;6.17;;;;;;;;;;5013314;28;20515;-83
2023/01/19 04:58:46;;;;;;;7.33;5.87;;;;;;;;;;5032183;28;20432;-84
2023/01/19 05:01:12;;;;;;;7.20;5.43;;;;;;;;;;5015653;28;20787;-84
2023/01/19 05:03:39;;;;;;;6.87;5.73;;;;;;;;;;5017417;28;20830;-84
2023/01/19 05:06:05;;;;;;;7.17;5.93;;;;;;;;;;5035549;28;20932;-84
2023/01/19 05:08:31;;;;;;;7.43;5.27;;;;;;;;;;5016615;28;20563;-85
2023/01/19 05:10:58;;;;;;;6.90;5.67;;;;;;;;;;5016859;28;20447;-84
2023/01/19 05:13:24;;;;;;;7.30;5.27;;;;;;;;;;5016594;28;20423;-84
2023/01/19 05:15:50;;;;;;;12.00;5.90;;;;;;;;;;5032350;28;21167;-85
2023/01/19 05:18:16;;;;;;;7.90;5.70;;;;;;;;;;5035574;28;20483;-84
2023/01/19 05:20:42;;;;;;;8.87;6.10;;;;;;;;;;5035210;28;20431;-85
2023/01/19 05:23:08;;;;;;;7.10;6.17;;;;;;;;;;5018373;28;20512;-85
2023/01/19 05:25:35;;;;;;;7.23;6.23;;;;;;;;;;5015841;28;20181;-84
2023/01/19 05:28:02;;;;;;;6.90;5.70;;;;;;;;;;5032989;28;20424;-84
2023/01/19 05:30:28;;;;;;;7.03;5.33;;;;;;;;;;5032160;28;20441;-84
2023/01/19 05:32:54;;;;;;;6.00;5.40;;;;;;;;;;5014074;28;20189;-85
2023/01/19 05:35:20;;;;;;;6.10;5.50;;;;;;;;;;5028213;28;20561;-85
2023/01/19 05:37:46;;;;;;;8.17;6.57;;;;;;;;;;5006550;28;20432;-85
2023/01/19 05:40:12;;;;;;;8.10;5.43;;;;;;;;;;5014942;28;20432;-86
2023/01/19 05:42:38;;;;;;;7.20;6.23;;;;;;;;;;5031234;28;20436;-85
2023/01/19 05:45:05;;;;;;;6.87;5.90;;;;;;;;;;5011433;28;20880;-85
2023/01/19 05:47:31;;;;;;;6.73;6.03;;;;;;;;;;5044588;28;20456;-85
2023/01/19 05:49:57;;;;;;;8.20;6.13;;;;;;;;;;5044837;28;20437;-84
2023/01/19 05:52:26;;;;;;;9.37;6.27;;;;;;;;;;5014724;28;20201;-87
2023/01/19 05:54:53;;;;;;;8.73;6.33;;;;;;;;;;5008913;28;20736;-86
2023/01/19 05:57:20;;;;;;;9.60;6.80;;;;;;;;;;5013959;28;20428;-87
2023/01/19 05:59:46;;;;;;;8.67;6.23;;;;;;;;;;5015259;28;20431;-87
2023/01/19 06:02:12;;;;;;;8.43;7.27;;;;;;;;;;5015023;28;20719;-85
2023/01/19 06:04:38;;;;;;;7.47;6.60;;;;;;;;;;5016978;28;20431;-87
2023/01/19 06:07:05;;;;;;;8.20;6.93;;;;;;;;;;5033638;28;20429;-86
2023/01/19 06:09:31;;;;;;;8.13;6.27;;;;;;;;;;5014101;28;20281;-86
2023/01/19 06:11:58;;;;;;;7.37;6.40;;;;;;;;;;5029093;28;20417;-84
2023/01/19 06:14:25;;;;;;;6.63;5.93;;;;;;;;;;5017213;28;20413;-88
2023/01/19 06:16:51;;;;;;;6.73;5.47;;;;;;;;;;5048247;28;20647;-86
2023/01/19 06:19:17;;;;;;;5.63;5.03;;;;;;;;;;5030443;28;20478;-88
2023/01/19 06:21:48;;;;;;;5.87;4.87;;;;;;;;;;5016661;28;20409;-87
2023/01/19 06:24:14;;;;;;;5.30;4.53;;;;;;;;;;5016764;28;20478;-87
2023/01/19 06:26:42;;;;;;;5.10;4.60;;;;;;;;;;5044948;28;20444;-87
2023/01/19 06:29:10;;;;;;;6.40;5.50;;;;;;;;;;5031427;28;20486;-87
2023/01/19 06:31:36;;;;;;;5.83;5.23;;;;;;;;;;5015503;28;20190;-82
2023/01/19 06:34:02;;;;;;;6.17;5.57;;;;;;;;;;5016485;28;20425;-87
2023/01/19 06:36:28;;;;;;;7.37;4.70;;;;;;;;;;5042763;28;20460;-87
2023/01/19 06:38:54;;;;;;;5.30;4.80;;;;;;;;;;5006375;23;20677;-88
2023/01/19 06:41:20;;;;;;;5.47;4.90;;;;;;;;;;5058703;28;20431;-87
2023/01/19 06:43:46;;;;;;;5.20;4.43;;;;;;;;;;5069253;28;20430;-87
2023/01/19 06:46:12;;;;;;;5.50;4.70;;;;;;;;;;5063778;28;20446;-88
2023/01/19 06:48:38;;;;;;;5.20;4.43;;;;;;;;;;5063456;28;20188;-87
2023/01/19 06:51:05;;;;;;;4.90;4.40;;;;;;;;;;5071223;28;20834;-86
2023/01/19 06:53:32;;;;;;;5.80;4.83;;;;;;;;;;5074674;28;20176;-87
2023/01/19 06:55:59;;;;;;;5.33;4.83;;;;;;;;;;5073171;28;20554;-87
2023/01/19 06:58:25;;;;;;;5.17;4.67;;;;;;;;;;5070582;28;20176;-86
2023/01/19 07:00:52;;;;;;;5.77;4.90;;;;;;;;;;5067434;28;20180;-87
2023/01/19 07:03:19;;;;;;;5.33;4.57;;;;;;;;;;5066766;28;20418;-87
2023/01/19 07:05:45;;;;;;;4.83;4.20;;;;;;;;;;5057100;28;20237;-87
2023/01/19 07:08:11;;;;;;;5.03;4.50;;;;;;;;;;5071403;28;20419;-87
2023/01/19 07:10:37;;;;;;;6.30;4.60;;;;;;;;;;5064615;28;20250;-87
2023/01/19 07:13:04;;;;;;;5.60;5.00;;;;;;;;;;5070909;28;20465;-85
2023/01/19 07:15:30;;;;;;;6.00;4.73;;;;;;;;;;5074297;28;20475;-87
2023/01/19 07:18:04;;;;;;;4.87;4.37;;;;;;;;;;5074622;28;20427;-85
2023/01/19 07:20:30;;;;;;;5.13;4.57;;;;;;;;;;5074945;28;20437;-86
2023/01/19 07:22:56;;;;;;;8.27;5.13;;;;;;;;;;5073657;28;20556;-86
2023/01/19 07:25:22;;;;;;;7.17;5.40;;;;;;;;;;5070283;28;20181;-86
2023/01/19 07:27:48;;;;;;;5.87;4.83;;;;;;;;;;5069052;28;20458;-86
2023/01/19 07:30:14;;;;;;;7.47;5.60;;;;;;;;;;5075813;28;20218;-86
2023/01/19 07:32:41;;;;;;;8.13;5.97;;;;;;;;;;5075917;28;20513;-86
2023/01/19 07:35:10;;;;;;;6.73;5.80;;;;;;;;;;5074730;28;20200;-85
2023/01/19 07:37:36;;;;;;;8.87;7.00;;;;;;;;;;5069814;28;20933;-86
2023/01/19 07:40:02;;;;;;;8.60;7.63;;;;;;;;;;5061958;28;20475;-87
2023/01/19 07:42:28;;;;;;;10.13;7.13;;;;;;;;;;5049382;28;20180;-86
2023/01/19 07:44:54;;;;;;;7.63;6.57;;;;;;;;;;5053305;28;20212;-86
2023/01/19 07:47:20;;;;;;;8.60;7.63;;;;;;;;;;5055676;28;20505;-86
2023/01/19 07:49:46;;;;;;;8.00;7.00;;;;;;;;;;5044963;28;20188;-86
2023/01/19 07:52:12;;;;;;;8.00;7.13;;;;;;;;;;5049716;28;20427;-87
2023/01/19 07:54:38;;;;;;;11.27;7.93;;;;;;;;;;5043317;28;20205;-86
2023/01/19 07:57:04;;;;;;;9.53;7.53;;;;;;;;;;5065745;28;20428;-86
2023/01/19 07:59:31;;;;;;;11.90;8.00;;;;;;;;;;5043348;28;20454;-86
2023/01/19 08:02:00;;;;;;;9.77;7.83;;;;;;;;;;5041932;28;20424;-85
2023/01/19 08:04:27;;;;;;;11.27;8.50;;;;;;;;;;5065028;28;20174;-87
2023/01/19 08:06:53;;;;;;;11.00;8.20;;;;;;;;;;5037412;28;20225;-86
2023/01/19 08:09:19;;;;;;;10.33;7.93;;;;;;;;;;5053299;28;20189;-86
2023/01/19 08:11:45;;;;;;;12.90;8.40;;;;;;;;;;5053043;28;20459;-86
2023/01/19 08:14:11;;;;;;;10.90;7.80;;;;;;;;;;5048560;28;20579;-86
2023/01/19 08:16:37;;;;;;;10.73;7.90;;;;;;;;;;5045148;28;20487;-86
2023/01/19 08:19:04;;;;;;;9.67;7.57;;;;;;;;;;5050157;28;20188;-85
2023/01/19 08:21:32;;;;;;;11.33;8.37;;;;;;;;;;5053473;28;20189;-86
2023/01/19 08:23:58;;;;;;;9.17;7.40;;;;;;;;;;5042995;28;20456;-86
2023/01/19 08:26:28;;;;;;;9.80;8.37;;;;;;;;;;5052144;28;20254;-86
2023/01/19 08:28:54;;;;;;;10.93;8.33;;;;;;;;;;5046324;28;20177;-84
2023/01/19 08:31:20;;;;;;;10.63;8.93;;;;;;;;;;5053240;28;20515;-86
2023/01/19 08:33:46;;;;;;;13.83;9.13;;;;;;;;;;5052588;28;20616;-86
2023/01/19 08:36:12;;;;;;;13.40;10.00;;;;;;;;;;5045327;28;20247;-87
2023/01/19 08:38:42;;;;;;;13.20;9.97;;;;;;;;;;5046198;28;20253;-86
2023/01/19 08:41:08;;;;;;;13.63;10.57;;;;;;;;;;5051000;28;20188;-85
2023/01/19 08:43:34;;;;;;;19.73;11.43;;;;;;;;;;5065224;28;20560;-86
2023/01/19 08:46:00;;;;;;;16.40;10.37;;;;;;;;;;5044279;28;20954;-86
2023/01/19 08:48:26;;;;;;;15.03;10.43;;;;;;;;;;5064102;28;20177;-85
2023/01/19 08:50:52;;;;;;;14.93;11.63;;;;;;;;;;5044747;28;20578;-86
2023/01/19 08:53:22;;;;;;;15.40;11.00;;;;;;;;;;5039517;28;20177;-85
2023/01/19 08:55:48;;;;;;;13.00;11.37;;;;;;;;;;5042354;28;20316;-86
2023/01/19 08:58:15;;;;;;;17.20;12.37;;;;;;;;;;5043412;28;20181;-86
2023/01/19 09:00:41;;;;;;;15.03;12.80;;;;;;;;;;5042595;28;20459;-85
2023/01/19 09:03:10;;;;;;;14.67;11.57;;;;;;;;;;5044132;28;20424;-86
2023/01/19 09:05:37;;;;;;;12.33;10.50;;;;;;;;;;5043074;28;20600;-85
2023/01/19 09:08:05;;;;;;;13.90;9.97;;;;;;;;;;5048492;28;20439;-85
2023/01/19 09:10:34;;;;;;;12.40;9.60;;;;;;;;;;5042383;28;20323;-85
2023/01/19 09:13:03;;;;;;;13.10;10.43;;;;;;;;;;5044872;28;20275;-86
2023/01/19 09:15:29;;;;;;;12.33;10.57;;;;;;;;;;5052010;28;20294;-85
2023/01/19 09:17:55;;;;;;;11.97;9.30;;;;;;;;;;5060874;28;20427;-86
2023/01/19 09:20:22;;;;;;;12.30;9.90;;;;;;;;;;5053668;28;20416;-86
2023/01/19 09:22:48;;;;;;;12.23;9.80;;;;;;;;;;5047735;28;20173;-85
2023/01/19 09:25:14;;;;;;;10.40;9.27;;;;;;;;;;5052483;28;20551;-85
2023/01/19 09:27:40;;;;;;;11.03;8.70;;;;;;;;;;5052741;28;20435;-85
2023/01/19 09:30:10;;;;;;;12.17;10.87;;;;;;;;;;5053127;28;20446;-86
2023/01/19 09:32:36;;;;;;;13.70;10.53;;;;;;;;;;5056251;28;20195;-85
2023/01/19 09:35:02;;;;;;;11.40;9.70;;;;;;;;;;5056035;28;20463;-86
2023/01/19 09:37:28;;;;;;;12.97;10.17;;;;;;;;;;5053144;28;20528;-85
2023/01/19 09:39:54;;;;;;;11.80;10.60;;;;;;;;;;5051423;28;20269;-85
2023/01/19 09:42:29;;;;;;;12.37;10.23;;;;;;;;;;5054789;28;20441;-86
2023/01/19 09:44:55;;;;;;;14.37;10.83;;;;;;;;;;5054466;28;20420;-85
2023/01/19 09:47:24;;;;;;;16.67;11.40;;;;;;;;;;5051584;28;20199;-86
2023/01/19 09:49:57;;;;;;;14.33;11.10;;;;;;;;;;5050311;28;20170;-87
2023/01/19 09:52:23;;;;;;;20.53;12.37;;;;;;;;;;5048715;28;20435;-86
2023/01/19 09:54:54;;;;;;;13.80;11.10;;;;;;;;;;5050822;28;20656;-82
2023/01/19 09:57:21;;;;;;;17.50;13.23;;;;;;;;;;5050291;28;20181;-84
2023/01/19 09:59:50;;;;;;;17.47;13.33;;;;;;;;;;5051877;28;20678;-84
2023/01/19 10:02:25;;;;;;;16.80;12.93;;;;;;;;;;5050174;28;20427;-84
2023/01/19 10:04:59;;;;;;;20.77;14.17;;;;;;;;;;5062150;28;20227;-83
2023/01/19 10:07:31;;;;;;;16.73;12.93;;;;;;;;;;5054665;28;20165;-82
2023/01/19 10:10:12;;;;;;;18.50;13.03;;;;;;;;;;5070775;28;21247;-84
2023/01/19 10:12:43;;;;;;;15.03;12.83;;;;;;;;;;5044467;28;20183;-85
2023/01/19 10:15:14;;;;;;;15.63;12.77;;;;;;;;;;5067682;28;20304;-83
2023/01/19 10:17:47;;;;;;;17.57;14.23;;;;;;;;;;5052893;28;20906;-84
2023/01/19 10:20:32;;;;;;;15.47;12.87;;;;;;;;;;5051919;28;20484;-84
2023/01/19 10:22:58;;;;;;;18.57;14.20;;;;;;;;;;5051664;28;20505;-84
2023/01/19 10:25:25;;;;;;;18.60;13.67;;;;;;;;;;5051284;28;20408;-84
2023/01/19 10:27:51;;;;;;;18.43;14.20;;;;;;;;;;5052257;28;20949;-83
2023/01/19 10:30:25;;;;;;;21.37;14.20;;;;;;;;;;5053985;28;20168;-82
2023/01/19 10:32:52;;;;;;;22.23;14.20;;;;;;;;;;5048937;28;21007;-83
2023/01/19 10:35:20;;;;;;;18.07;13.57;;;;;;;;;;5065981;28;20739;-82
2023/01/19 10:37:46;;;;;;;20.10;13.63;;;;;;;;;;5050896;28;20166;-82
2023/01/19 10:40:12;;;;;;;18.83;13.17;;;;;;;;;;5066895;28;20224;-84
2023/01/19 10:42:40;;;;;;;16.30;12.73;;;;;;;;;;5047662;28;20544;-83
2023/01/19 10:45:15;;;;;;;23.37;14.87;;;;;;;;;;5049123;28;20436;-82
2023/01/19 10:47:42;;;;;;;21.00;13.73;;;;;;;;;;5061032;28;20571;-83
2023/01/19 10:50:23;;;;;;;23.00;14.20;;;;;;;;;;5051774;28;20633;-82
2023/01/19 10:52:51;;;;;;;18.43;13.90;;;;;;;;;;5053945;28;20534;-82
2023/01/19 10:55:37;;;;;;;18.00;12.97;;;;;;;;;;5052250;28;20213;-83
2023/01/19 10:58:04;;;;;;;17.10;13.07;;;;;;;;;;5052231;28;20522;-81
2023/01/19 11:00:38;;;;;;;18.57;12.77;;;;;;;;;;5052809;28;20419;-83
2023/01/19 11:03:24;;;;;;;20.23;13.37;;;;;;;;;;5051803;28;20850;-84
2023/01/19 11:05:50;;;;;;;22.47;13.33;;;;;;;;;;5052316;28;20428;-84
2023/01/19 11:08:26;;;;;;;16.70;12.73;;;;;;;;;;5052747;28;20505;-82
2023/01/19 11:11:03;;;;;;;20.70;13.73;;;;;;;;;;5052685;28;20450;-83
2023/01/19 11:13:29;;;;;;;21.47;12.93;;;;;;;;;;5052246;28;20427;-83
2023/01/19 11:15:57;;;;;;;19.50;14.00;;;;;;;;;;5051810;28;20470;-83
2023/01/19 11:18:26;;;;;;;19.03;13.43;;;;;;;;;;5052558;28;20184;-82
2023/01/19 11:20:53;;;;;;;18.63;13.80;;;;;;;;;;5052376;28;20170;-83
2023/01/19 11:23:19;;;;;;;19.07;14.20;;;;;;;;;;5050214;28;20177;-83
2023/01/19 11:25:47;;;;;;;21.83;13.67;;;;;;;;;;5051219;28;20722;-85
2023/01/19 11:28:42;;;;;;;19.93;14.77;;;;;;;;;;5050982;28;20185;-83
2023/01/19 11:31:14;;;;;;;20.10;14.17;;;;;;;;;;5039596;28;20197;-83
2023/01/19 11:33:41;;;;;;;25.93;14.97;;;;;;;;;;5052859;28;20833;-82
2023/01/19 11:36:17;;;;;;;19.23;13.47;;;;;;;;;;5055461;28;20824;-83
2023/01/19 11:38:45;;;;;;;19.77;14.77;;;;;;;;;;5055604;28;20230;-83
2023/01/19 11:41:16;;;;;;;21.20;15.30;;;;;;;;;;5055414;28;20886;-82
2023/01/19 11:43:42;;;;;;;18.40;13.93;;;;;;;;;;5056465;28;20181;-83
2023/01/19 11:46:09;;;;;;;19.40;13.77;;;;;;;;;;5055537;28;20195;-84
2023/01/19 11:49:00;;;;;;;21.77;13.60;;;;;;;;;;5055160;28;20177;-83
2023/01/19 11:51:29;;;;;;;20.60;14.60;;;;;;;;;;5039916;28;20435;-83
2023/01/19 11:53:55;;;;;;;20.40;13.53;;;;;;;;;;5056170;28;20416;-83
2023/01/19 11:56:23;;;;;;;19.17;13.40;;;;;;;;;;5055332;28;20456;-83
2023/01/19 11:58:49;;;;;;;18.97;14.00;;;;;;;;;;5055993;28;20547;-83
2023/01/19 12:01:23;;;;;;;18.53;13.37;;;;;;;;;;5059757;28;20219;-83
2023/01/19 12:03:58;;;;;;;19.33;13.03;;;;;;;;;;5055421;28;20926;-83
2023/01/19 12:06:30;;;;;;;16.93;12.93;;;;;;;;;;5057359;28;20396;-82
2023/01/19 12:08:56;;;;;;;16.07;13.03;;;;;;;;;;5054810;28;20280;-84
2023/01/19 12:11:26;;;;;;;19.17;13.07;;;;;;;;;;5055613;28;20423;-84
2023/01/19 12:13:53;;;;;;;17.10;12.50;;;;;;;;;;5055096;28;20424;-84
2023/01/19 12:16:23;;;;;;;20.63;13.83;;;;;;;;;;5054958;28;20459;-82
2023/01/19 12:19:01;;;;;;;16.90;12.10;;;;;;;;;;5055291;28;20242;-83
2023/01/19 12:21:27;;;;;;;21.47;13.37;;;;;;;;;;5054649;28;20423;-83
2023/01/19 12:24:00;;;;;;;16.20;12.10;;;;;;;;;;5054874;28;20614;-84
2023/01/19 12:26:29;;;;;;;18.00;11.87;;;;;;;;;;5054529;28;20412;-86
2023/01/19 12:28:59;;;;;;;19.77;12.00;;;;;;;;;;5054705;28;20435;-83
2023/01/19 12:31:25;;;;;;;18.40;12.83;;;;;;;;;;5058923;28;20204;-83
2023/01/19 12:33:51;;;;;;;16.13;12.40;;;;;;;;;;5056747;28;20620;-83
2023/01/19 12:36:26;;;;;;;16.80;12.90;;;;;;;;;;5056739;28;20181;-83
2023/01/19 12:38:55;;;;;;;19.70;11.97;;;;;;;;;;5058267;28;20439;-82
2023/01/19 12:41:23;;;;;;;16.20;12.00;;;;;;;;;;5052317;28;20272;-82
2023/01/19 12:44:17;;;;;;;17.27;11.53;;;;;;;;;;5054523;28;20172;-82
2023/01/19 12:46:46;;;;;;;16.53;11.20;;;;;;;;;;5057249;28;20912;-82
2023/01/19 12:49:32;;;;;;;20.00;12.37;;;;;;;;;;5057586;28;20950;-81
2023/01/19 12:52:19;;;;;;;18.00;12.17;;;;;;;;;;5054882;28;20242;-80
2023/01/19 12:54:51;;;;;;;17.50;11.90;;;;;;;;;;5052166;28;20962;-83
2023/01/19 12:57:20;;;;;;;14.10;11.50;;;;;;;;;;5052864;28;20546;-83
2023/01/19 12:59:46;;;;;;;16.70;13.23;;;;;;;;;;5051584;28;20173;-83
2023/01/19 13:02:28;;;;;;;18.77;12.50;;;;;;;;;;5056203;28;20432;-83
2023/01/19 13:05:06;;;;;;;15.63;10.40;;;;;;;;;;5054818;28;20431;-83
2023/01/19 13:07:51;;;;;;;20.33;12.37;;;;;;;;;;5044271;28;20181;-83
2023/01/19 13:10:36;;;;;;;16.67;12.30;;;;;;;;;;5060830;28;20442;-84
2023/01/19 13:13:16;;;;;;;15.53;11.23;;;;;;;;;;5051403;28;20424;-86
2023/01/19 13:15:43;;;;;;;17.23;11.37;;;;;;;;;;5047706;28;20195;-83
2023/01/19 13:18:10;;;;;;;16.43;11.47;;;;;;;;;;5053330;28;20177;-82
2023/01/19 13:20:43;;;;;;;17.07;11.67;;;;;;;;;;5069277;28;20420;-84
2023/01/19 13:23:18;;;;;;;13.23;11.40;;;;;;;;;;5053086;28;20665;-83
2023/01/19 13:25:47;;;;;;;13.80;10.97;;;;;;;;;;5052874;28;20194;-83
2023/01/19 13:28:13;;;;;;;14.13;10.50;;;;;;;;;;5050414;28;20181;-85
2023/01/19 13:30:56;;;;;;;17.40;11.50;;;;;;;;;;5053134;28;20659;-84
2023/01/19 13:33:23;;;;;;;16.17;11.90;;;;;;;;;;5037561;28;20528;-82
2023/01/19 13:35:51;;;;;;;15.60;11.43;;;;;;;;;;5053194;28;20550;-81
2023/01/19 13:38:18;;;;;;;16.43;11.93;;;;;;;;;;5053709;28;20633;-83
2023/01/19 13:40:45;;;;;;;16.40;12.77;;;;;;;;;;5052790;28;20231;-84
2023/01/19 13:43:42;;;;;;;14.10;11.63;;;;;;;;;;5066729;28;20196;-84
2023/01/19 13:46:11;;;;;;;14.27;10.93;;;;;;;;;;5051976;28;20823;-84
2023/01/19 13:48:37;;;;;;;13.07;10.93;;;;;;;;;;5050221;28;20416;-84
2023/01/19 13:51:07;;;;;;;14.37;11.40;;;;;;;;;;5040050;28;20182;-84
2023/01/19 13:53:34;;;;;;;12.00;10.50;;;;;;;;;;5043806;28;20188;-85
2023/01/19 13:56:06;;;;;;;17.27;11.80;;;;;;;;;;5053231;28;20280;-84
2023/01/19 13:58:32;;;;;;;19.90;11.47;;;;;;;;;;5053601;28;20255;-83
2023/01/19 14:00:58;;;;;;;16.77;11.60;;;;;;;;;;5053571;28;20173;-84
2023/01/19 14:03:25;;;;;;;14.13;10.90;;;;;;;;;;5055619;28;20165;-84
2023/01/19 14:05:52;;;;;;;15.67;11.90;;;;;;;;;;5054254;28;20177;-83
2023/01/19 14:08:18;;;;;;;18.70;12.07;;;;;;;;;;5053721;28;20669;-84
2023/01/19 14:10:55;;;;;;;16.10;11.17;;;;;;;;;;5052886;28;20177;-83
2023/01/19 14:13:24;;;;;;;16.20;11.90;;;;;;;;;;5039742;28;20677;-83
2023/01/19 14:15:50;;;;;;;18.63;12.40;;;;;;;;;;5051517;28;20200;-82
2023/01/19 14:18:35;;;;;;;17.40;11.70;;;;;;;;;;5054722;28;20528;-84
2023/01/19 14:21:10;;;;;;;16.70;12.43;;;;;;;;;;5085569;28;20447;-83
2023/01/19 14:23:37;;;;;;;15.07;12.23;;;;;;;;;;5052145;28;20263;-85
2023/01/19 14:26:03;;;;;;;15.63;10.73;;;;;;;;;;5051442;28;20181;-84
2023/01/19 14:28:41;;;;;;;13.70;11.10;;;;;;;;;;5053255;28;20496;-83
2023/01/19 14:31:25;;;;;;;16.43;11.80;;;;;;;;;;5070745;28;20428;-83
2023/01/19 14:33:52;;;;;;;15.00;12.37;;;;;;;;;;5073258;28;20265;-84
2023/01/19 14:36:24;;;;;;;13.80;11.83;;;;;;;;;;5052541;28;20208;-83
2023/01/19 14:38:51;;;;;;;20.73;12.10;;;;;;;;;;5052479;28;20205;-86
2023/01/19 14:41:24;;;;;;;15.03;12.07;;;;;;;;;;5052533;28;20253;-84
2023/01/19 14:43:51;;;;;;;15.77;10.67;;;;;;;;;;5051476;28;21264;-83
2023/01/19 14:46:18;;;;;;;15.17;11.50;;;;;;;;;;5054397;28;20597;-84
2023/01/19 14:48:47;;;;;;;19.10;12.10;;;;;;;;;;5055032;28;20177;-83
2023/01/19 14:51:18;;;;;;;13.60;10.93;;;;;;;;;;5051695;28;20181;-85